Time;durP1;ratioP1;P1;durP2;ratioP2;P2;SDS_P1;SDS_P2;PMS_P1;PMS_P2;Temp;Humidity;BMP_temperature;BMP_pressure;BME280_temperature;BME280_humidity;BME280_pressure;Samples;Min_cycle;Max_cycle;Signal;HPM_P1;HPM_P2
2021/03/24 00:00:08;;;;;;;6.28;5.47;;;23.70;29.20;;;;;;5051694;28;20028;-58
2021/03/24 00:02:35;;;;;;;7.03;6.13;;;23.70;29.20;;;;;;5050260;28;20052;-59
2021/03/24 00:05:01;;;;;;;6.55;5.85;;;23.70;29.30;;;;;;5052231;28;20061;-58
2021/03/24 00:07:26;;;;;;;7.70;6.28;;;23.70;29.30;;;;;;5052308;28;20021;-53
2021/03/24 00:09:52;;;;;;;7.25;6.45;;;23.60;29.30;;;;;;5052048;28;20017;-60
2021/03/24 00:12:18;;;;;;;6.57;5.85;;;23.70;29.30;;;;;;5052330;28;20036;-55
2021/03/24 00:14:44;;;;;;;6.53;5.93;;;23.60;29.30;;;;;;5042366;28;20037;-56
2021/03/24 00:17:10;;;;;;;7.20;6.50;;;23.60;29.20;;;;;;5051866;28;20095;-53
2021/03/24 00:19:35;;;;;;;7.07;6.38;;;23.70;29.30;;;;;;5051506;28;20037;-56
2021/03/24 00:22:01;;;;;;;7.28;5.97;;;23.60;29.20;;;;;;5052014;28;20025;-58
2021/03/24 00:24:27;;;;;;;6.47;5.65;;;23.60;29.20;;;;;;5052307;28;20067;-53
2021/03/24 00:26:53;;;;;;;6.65;5.63;;;23.60;29.20;;;;;;5051682;28;20021;-59
2021/03/24 00:29:18;;;;;;;7.07;6.38;;;23.60;29.30;;;;;;5051545;28;20348;-57
2021/03/24 00:31:44;;;;;;;6.60;6.00;;;23.60;29.30;;;;;;5051868;28;20101;-55
2021/03/24 00:34:10;;;;;;;7.40;6.40;;;23.60;29.30;;;;;;5052286;28;20044;-55
2021/03/24 00:36:36;;;;;;;6.88;6.03;;;23.60;29.30;;;;;;5049087;28;20045;-57
2021/03/24 00:39:02;;;;;;;6.95;6.25;;;23.50;29.30;;;;;;5052662;28;20086;-57
2021/03/24 00:41:27;;;;;;;6.47;5.80;;;23.50;29.30;;;;;;5052099;28;20463;-57
2021/03/24 00:43:53;;;;;;;6.85;6.20;;;23.50;29.30;;;;;;5052899;28;20456;-54
2021/03/24 00:46:19;;;;;;;8.23;7.03;;;23.50;29.30;;;;;;5055712;28;20546;-59
2021/03/24 00:48:45;;;;;;;9.10;7.50;;;23.50;29.30;;;;;;5055935;28;20044;-57
2021/03/24 00:51:11;;;;;;;8.27;7.45;;;23.50;29.30;;;;;;5048722;28;20029;-55
2021/03/24 00:53:36;;;;;;;8.35;7.43;;;23.50;29.30;;;;;;5055029;28;20028;-60
2021/03/24 00:56:03;;;;;;;7.75;6.93;;;23.50;29.30;;;;;;5055416;28;20122;-54
2021/03/24 00:58:28;;;;;;;7.80;6.65;;;23.50;29.30;;;;;;5055367;28;20033;-54
2021/03/24 01:00:54;;;;;;;8.50;6.90;;;23.50;29.30;;;;;;5055576;28;20052;-56
2021/03/24 01:03:20;;;;;;;7.55;6.57;;;23.50;29.30;;;;;;5053228;28;20024;-55
2021/03/24 01:05:48;;;;;;;7.18;6.40;;;23.50;29.30;;;;;;5055453;28;20025;-54
2021/03/24 01:08:20;;;;;;;7.20;6.50;;;23.50;29.30;;;;;;5055410;28;20091;-59
2021/03/24 01:10:46;;;;;;;6.88;6.18;;;23.50;29.30;;;;;;5053399;28;20036;-58
2021/03/24 01:13:15;;;;;;;7.25;6.55;;;23.40;29.20;;;;;;5055134;28;20379;-58
2021/03/24 01:15:41;;;;;;;8.02;6.43;;;23.40;29.20;;;;;;5054982;28;20802;-59
2021/03/24 01:18:07;;;;;;;7.88;6.70;;;23.40;29.20;;;;;;5055046;28;20124;-54
2021/03/24 01:20:36;;;;;;;7.15;6.25;;;23.40;29.20;;;;;;5052739;28;20045;-55
2021/03/24 01:23:02;;;;;;;6.85;6.15;;;23.40;29.20;;;;;;5055651;28;20029;-55
2021/03/24 01:25:29;;;;;;;7.25;6.55;;;23.40;29.20;;;;;;5054433;28;20025;-61
2021/03/24 01:27:56;;;;;;;7.97;7.18;;;23.40;29.20;;;;;;5028697;28;20053;-56
2021/03/24 01:30:25;;;;;;;7.43;6.70;;;23.40;29.20;;;;;;5053273;28;20025;-56
2021/03/24 01:32:51;;;;;;;7.63;6.55;;;23.40;29.20;;;;;;5054527;28;20408;-56
2021/03/24 01:35:18;;;;;;;7.53;6.38;;;23.30;29.10;;;;;;5053924;28;20022;-55
2021/03/24 01:37:45;;;;;;;7.68;6.38;;;23.30;29.10;;;;;;5055229;28;20032;-57
2021/03/24 01:40:24;;;;;;;8.15;6.15;;;23.30;29.10;;;;;;5055185;28;20033;-57
2021/03/24 01:42:52;;;;;;;7.00;6.32;;;23.40;29.20;;;;;;5030187;28;20444;-58
2021/03/24 01:45:18;;;;;;;6.88;6.18;;;23.30;29.10;;;;;;5054891;28;20025;-54
2021/03/24 01:47:44;;;;;;;8.07;7.20;;;23.30;29.20;;;;;;5055469;28;20021;-59
2021/03/24 01:50:26;;;;;;;7.20;6.45;;;23.30;29.20;;;;;;5054198;28;20471;-57
2021/03/24 01:52:52;;;;;;;6.93;6.00;;;23.30;29.20;;;;;;5055347;28;20120;-56
2021/03/24 01:55:18;;;;;;;7.07;6.15;;;23.30;29.20;;;;;;5053369;28;20132;-58
2021/03/24 01:57:47;;;;;;;7.18;6.47;;;23.30;29.20;;;;;;5054709;28;20028;-59
2021/03/24 02:00:23;;;;;;;7.15;6.43;;;23.30;29.20;;;;;;5028509;28;20334;-57
2021/03/24 02:02:49;;;;;;;7.03;6.32;;;23.30;29.20;;;;;;5053177;28;20094;-60
2021/03/24 02:05:15;;;;;;;7.10;6.40;;;23.20;29.20;;;;;;5053651;28;20033;-57
2021/03/24 02:07:49;;;;;;;7.90;6.85;;;23.30;29.20;;;;;;5053945;28;20041;-60
2021/03/24 02:10:42;;;;;;;7.13;6.43;;;23.30;29.20;;;;;;5054103;28;20061;-56
2021/03/24 02:13:07;;;;;;;6.78;6.07;;;23.30;29.20;;;;;;5054540;28;20140;-57
2021/03/24 02:15:39;;;;;;;6.43;5.80;;;23.30;29.20;;;;;;5053135;28;20036;-55
2021/03/24 02:18:09;;;;;;;6.82;6.13;;;23.30;29.20;;;;;;5053376;28;20437;-57
2021/03/24 02:20:47;;;;;;;7.03;6.32;;;23.30;29.20;;;;;;5052744;28;20057;-52
2021/03/24 02:23:39;;;;;;;7.03;6.25;;;23.30;29.50;;;;;;5051554;28;20098;-60
2021/03/24 02:26:40;;;;;;;6.53;5.85;;;23.30;29.20;;;;;;5051845;28;20064;-54
2021/03/24 02:29:08;;;;;;;6.88;6.18;;;23.20;29.20;;;;;;5051787;28;20025;-56
2021/03/24 02:31:35;;;;;;;7.03;6.28;;;23.20;29.20;;;;;;5054056;28;20043;-60
2021/03/24 02:34:09;;;;;;;9.25;7.15;;;23.20;29.20;;;;;;5053327;28;20040;-56
2021/03/24 02:36:37;;;;;;;7.65;6.65;;;23.20;29.20;;;;;;5051339;28;20045;-56
2021/03/24 02:39:06;;;;;;;7.43;6.43;;;23.20;29.20;;;;;;5053489;28;20040;-58
2021/03/24 02:41:33;;;;;;;7.30;6.60;;;23.20;29.20;;;;;;5053435;28;20039;-54
2021/03/24 02:43:59;;;;;;;7.90;6.68;;;23.20;29.20;;;;;;5053295;28;20028;-55
2021/03/24 02:46:27;;;;;;;7.68;6.45;;;23.20;29.20;;;;;;5042906;28;20105;-54
2021/03/24 02:48:53;;;;;;;7.22;6.45;;;23.20;29.20;;;;;;5053688;28;20037;-57
2021/03/24 02:51:24;;;;;;;7.30;6.53;;;23.10;29.20;;;;;;5043736;28;20371;-56
2021/03/24 02:53:52;;;;;;;7.90;6.43;;;23.20;29.20;;;;;;5052895;28;20103;-58
2021/03/24 02:56:18;;;;;;;7.28;6.57;;;23.10;29.20;;;;;;5053231;28;20040;-57
2021/03/24 02:58:44;;;;;;;7.22;6.53;;;23.10;29.20;;;;;;5052500;28;20033;-59
2021/03/24 03:01:20;;;;;;;7.63;6.88;;;23.10;29.20;;;;;;5053963;28;20103;-53
2021/03/24 03:03:56;;;;;;;7.07;6.38;;;23.10;29.20;;;;;;5052743;28;20094;-58
2021/03/24 03:06:27;;;;;;;7.40;6.70;;;23.10;29.10;;;;;;5051185;28;20021;-52
2021/03/24 03:09:42;;;;;;;7.45;6.30;;;23.10;29.10;;;;;;5053096;28;20029;-59
2021/03/24 03:12:14;;;;;;;7.05;6.05;;;23.10;29.10;;;;;;5049221;28;20041;-56
2021/03/24 03:14:52;;;;;;;7.90;7.10;;;23.10;29.20;;;;;;5050603;28;20029;-56
2021/03/24 03:17:40;;;;;;;6.80;6.10;;;23.10;29.10;;;;;;5050408;28;20129;-55
2021/03/24 03:20:32;;;;;;;7.28;6.57;;;23.10;29.10;;;;;;5051161;28;20045;-56
2021/03/24 03:23:07;;;;;;;6.82;5.82;;;23.10;29.10;;;;;;5053328;28;20040;-56
2021/03/24 03:25:37;;;;;;;7.75;6.93;;;23.00;29.10;;;;;;5050509;28;20511;-56
2021/03/24 03:28:10;;;;;;;7.78;6.63;;;23.00;29.10;;;;;;5052917;28;20121;-53
2021/03/24 03:30:39;;;;;;;6.53;5.90;;;23.00;29.10;;;;;;5051485;28;20100;-54
2021/03/24 03:33:10;;;;;;;7.15;6.28;;;23.00;29.10;;;;;;5052660;28;20028;-53
2021/03/24 03:35:37;;;;;;;6.50;5.63;;;23.00;29.10;;;;;;5044896;28;20421;-59
2021/03/24 03:38:08;;;;;;;7.40;6.70;;;23.00;29.10;;;;;;5054826;28;20021;-59
2021/03/24 03:40:36;;;;;;;7.32;6.57;;;23.00;29.10;;;;;;5054100;28;20116;-57
2021/03/24 03:43:07;;;;;;;7.07;6.38;;;23.00;29.10;;;;;;5054639;28;20025;-53
2021/03/24 03:45:37;;;;;;;7.22;6.53;;;23.00;29.10;;;;;;5053735;28;20684;-52
2021/03/24 03:48:04;;;;;;;7.15;6.40;;;23.00;29.10;;;;;;5052123;28;20028;-47
2021/03/24 03:50:29;;;;;;;7.20;6.50;;;22.90;29.10;;;;;;5053390;28;20036;-55
2021/03/24 03:53:14;;;;;;;7.03;5.80;;;22.90;29.10;;;;;;5042339;28;20025;-57
2021/03/24 03:56:07;;;;;;;7.50;6.65;;;23.00;29.10;;;;;;5051607;28;20124;-58
2021/03/24 03:58:50;;;;;;;6.85;6.03;;;23.00;29.10;;;;;;5066363;28;20336;-56
2021/03/24 04:01:42;;;;;;;6.18;5.57;;;22.90;29.00;;;;;;5051578;28;20035;-60
2021/03/24 04:04:16;;;;;;;6.57;5.80;;;23.00;29.10;;;;;;5052858;28;20044;-54
2021/03/24 04:06:52;;;;;;;6.60;5.93;;;22.90;29.50;;;;;;5054524;28;20036;-51
2021/03/24 04:09:18;;;;;;;7.18;6.47;;;22.90;29.00;;;;;;5053551;28;20103;-57
2021/03/24 04:11:48;;;;;;;7.57;6.80;;;22.90;29.00;;;;;;5054426;28;20060;-51
2021/03/24 04:14:18;;;;;;;7.05;6.32;;;22.90;29.00;;;;;;5054160;28;20021;-52
2021/03/24 04:16:46;;;;;;;7.00;6.30;;;22.90;29.00;;;;;;5051857;28;20387;-50
2021/03/24 04:19:16;;;;;;;7.47;6.20;;;22.90;29.00;;;;;;5057789;28;20506;-58
2021/03/24 04:21:47;;;;;;;7.03;6.30;;;22.90;29.00;;;;;;5059728;28;20041;-60
2021/03/24 04:24:27;;;;;;;7.28;6.30;;;22.90;29.00;;;;;;5057269;28;20028;-56
2021/03/24 04:26:59;;;;;;;8.35;7.10;;;22.90;29.00;;;;;;5058014;28;20036;-53
2021/03/24 04:29:45;;;;;;;7.25;6.55;;;22.90;29.00;;;;;;5058784;28;20447;-55
2021/03/24 04:32:12;;;;;;;7.03;6.32;;;22.90;29.00;;;;;;5059225;28;20033;-55
2021/03/24 04:34:39;;;;;;;7.60;6.80;;;22.80;29.00;;;;;;5049247;28;20020;-57
2021/03/24 04:37:46;;;;;;;8.18;6.30;;;22.80;29.00;;;;;;5058955;28;20025;-52
2021/03/24 04:40:40;;;;;;;6.68;5.80;;;22.90;29.00;;;;;;5054694;28;20745;-53
2021/03/24 04:43:12;;;;;;;7.00;6.30;;;22.80;29.00;;;;;;5056674;28;20029;-57
2021/03/24 04:45:55;;;;;;;6.97;6.22;;;22.80;29.00;;;;;;5058372;28;21314;-53
2021/03/24 04:48:47;;;;;;;8.05;6.70;;;22.80;29.00;;;;;;5058413;28;20043;-58
2021/03/24 04:51:22;;;;;;;7.18;6.45;;;22.80;29.00;;;;;;5049652;28;20037;-57
2021/03/24 04:53:54;;;;;;;7.10;6.43;;;22.80;29.00;;;;;;5052033;28;20033;-58
2021/03/24 04:56:21;;;;;;;7.03;6.22;;;22.80;29.00;;;;;;5057862;28;20044;-58
2021/03/24 04:58:53;;;;;;;6.65;5.93;;;22.80;29.00;;;;;;5058374;28;20041;-57
2021/03/24 05:01:32;;;;;;;7.25;6.35;;;22.70;29.00;;;;;;5058567;28;20471;-57
2021/03/24 05:04:06;;;;;;;6.13;5.53;;;22.70;29.00;;;;;;5057524;28;20040;-57
2021/03/24 05:06:47;;;;;;;6.03;5.30;;;22.80;29.00;;;;;;5059313;28;20044;-54
2021/03/24 05:09:13;;;;;;;7.15;6.18;;;22.80;28.90;;;;;;5058213;28;20091;-54
2021/03/24 05:12:03;;;;;;;6.88;6.07;;;22.80;28.90;;;;;;5058775;28;20044;-49
2021/03/24 05:14:45;;;;;;;7.50;6.63;;;22.70;28.80;;;;;;5057899;28;20075;-60
2021/03/24 05:17:19;;;;;;;8.00;6.32;;;22.70;28.80;;;;;;5056418;28;20475;-59
2021/03/24 05:19:47;;;;;;;6.47;5.82;;;22.70;28.80;;;;;;5057369;28;20205;-53
2021/03/24 05:22:26;;;;;;;6.50;5.85;;;22.70;28.90;;;;;;5057471;28;20037;-57
2021/03/24 05:24:58;;;;;;;6.88;6.18;;;22.70;28.80;;;;;;5057628;28;20033;-52
2021/03/24 05:27:35;;;;;;;6.32;5.72;;;22.70;28.80;;;;;;5056818;28;20033;-55
2021/03/24 05:30:33;;;;;;;7.45;5.70;;;22.70;28.80;;;;;;5030470;28;20021;-59
2021/03/24 05:33:11;;;;;;;7.43;6.00;;;22.70;28.70;;;;;;5052397;28;20129;-57
2021/03/24 05:36:26;;;;;;;7.80;6.70;;;22.70;28.70;;;;;;5053953;28;20048;-53
2021/03/24 05:38:54;;;;;;;6.50;5.70;;;22.70;28.70;;;;;;5020089;28;20360;-56
2021/03/24 05:41:29;;;;;;;6.40;5.80;;;22.70;28.70;;;;;;5028576;28;20155;-60
2021/03/24 05:44:19;;;;;;;6.80;5.63;;;22.60;28.60;;;;;;5052622;28;20047;-59
2021/03/24 05:47:13;;;;;;;6.40;5.80;;;22.60;28.60;;;;;;5053349;28;20132;-52
2021/03/24 05:49:38;;;;;;;5.68;5.07;;;22.60;28.60;;;;;;5054370;28;20112;-52
2021/03/24 05:52:09;;;;;;;6.32;5.72;;;22.60;28.60;;;;;;5028725;28;20045;-58
2021/03/24 05:55:01;;;;;;;6.05;5.45;;;22.60;29.00;;;;;;5048041;28;20071;-59
2021/03/24 05:58:01;;;;;;;5.55;4.93;;;22.60;28.50;;;;;;5053024;28;20080;-56
2021/03/24 06:00:32;;;;;;;5.70;5.10;;;22.60;28.50;;;;;;5052628;28;20047;-56
2021/03/24 06:03:16;;;;;;;6.47;5.40;;;22.60;28.50;;;;;;5053512;28;20033;-54
2021/03/24 06:06:09;;;;;;;5.85;5.25;;;22.60;28.40;;;;;;5052849;28;20033;-54
2021/03/24 06:08:53;;;;;;;5.63;5.03;;;22.60;28.40;;;;;;5054208;28;20029;-56
2021/03/24 06:11:27;;;;;;;5.32;4.82;;;22.60;28.40;;;;;;5052566;28;20040;-56
2021/03/24 06:14:24;;;;;;;5.57;4.50;;;22.60;28.40;;;;;;5053717;28;20032;-58
2021/03/24 06:17:08;;;;;;;4.88;4.38;;;22.60;28.40;;;;;;5050443;28;20048;-55
2021/03/24 06:20:11;;;;;;;5.25;4.55;;;22.60;28.40;;;;;;5046020;28;20048;-51
2021/03/24 06:23:23;;;;;;;5.93;4.60;;;22.50;28.40;;;;;;5052283;28;20043;-57
2021/03/24 06:26:15;;;;;;;4.93;4.30;;;22.50;28.40;;;;;;5033386;28;20045;-55
2021/03/24 06:29:29;;;;;;;5.15;4.47;;;22.50;28.40;;;;;;5053524;28;20035;-58
2021/03/24 06:32:15;;;;;;;6.97;4.15;;;22.50;28.50;;;;;;5053660;28;20047;-55
2021/03/24 06:34:57;;;;;;;4.95;4.43;;;22.50;28.50;;;;;;5053692;28;20029;-56
2021/03/24 06:37:50;;;;;;;5.05;4.35;;;22.50;28.60;;;;;;5053908;28;20072;-52
2021/03/24 06:40:18;;;;;;;6.28;4.85;;;22.50;28.60;;;;;;5052121;28;20462;-55
2021/03/24 06:42:50;;;;;;;5.60;5.00;;;22.50;28.60;;;;;;5052644;28;20028;-55
2021/03/24 06:45:46;;;;;;;6.20;5.03;;;22.50;28.60;;;;;;5052174;28;20375;-57
2021/03/24 06:48:33;;;;;;;6.97;5.30;;;22.50;28.60;;;;;;5051711;28;20036;-54
2021/03/24 06:51:17;;;;;;;6.35;5.13;;;22.50;28.70;;;;;;5053225;28;20102;-51
2021/03/24 06:54:01;;;;;;;6.03;5.20;;;22.50;28.70;;;;;;5052940;28;20036;-52
2021/03/24 06:57:05;;;;;;;5.25;4.75;;;22.50;28.70;;;;;;5044332;28;20116;-56
2021/03/24 06:59:52;;;;;;;5.55;5.00;;;22.50;28.70;;;;;;5052880;28;20634;-55
2021/03/24 07:03:06;;;;;;;6.38;5.32;;;22.50;28.70;;;;;;5047016;28;20067;-60
2021/03/24 07:05:47;;;;;;;5.85;5.25;;;22.50;28.80;;;;;;4989242;28;20067;-55
2021/03/24 07:08:57;;;;;;;7.30;5.45;;;22.40;28.80;;;;;;5052787;28;20036;-55
2021/03/24 07:11:37;;;;;;;5.82;4.93;;;22.50;28.80;;;;;;5050051;28;20087;-57
2021/03/24 07:14:34;;;;;;;6.65;5.47;;;22.50;28.90;;;;;;5046786;28;20040;-60
2021/03/24 07:17:25;;;;;;;6.47;5.78;;;22.50;28.90;;;;;;5051850;28;20040;-58
2021/03/24 07:20:13;;;;;;;7.15;5.57;;;22.50;28.90;;;;;;5051889;28;20063;-58
2021/03/24 07:22:55;;;;;;;6.63;5.93;;;22.50;28.90;;;;;;5050366;28;20041;-59
2021/03/24 07:25:40;;;;;;;6.10;5.35;;;22.50;29.00;;;;;;5051442;28;20040;-58
2021/03/24 07:28:08;;;;;;;;;;;22.50;29.00;;;;;;5050378;28;20440;-59
2021/03/24 07:30:37;;;;;;;5.90;4.82;;;22.40;29.00;;;;;;5044417;28;19909;-56
2021/03/24 07:33:41;;;;;;;5.82;5.18;;;22.40;29.10;;;;;;5036760;28;20067;-53
2021/03/24 07:36:35;;;;;;;5.70;5.03;;;22.50;29.10;;;;;;5046864;28;20041;-56
2021/03/24 07:39:04;;;;;;;5.70;5.03;;;22.40;29.10;;;;;;5050907;28;20028;-57
2021/03/24 07:41:45;;;;;;;6.60;5.68;;;22.50;29.20;;;;;;5052152;28;20017;-59
2021/03/24 07:44:26;;;;;;;6.25;5.65;;;22.50;29.20;;;;;;5049320;28;20475;-60
2021/03/24 07:47:34;;;;;;;6.43;5.45;;;22.40;29.20;;;;;;5049923;28;20017;-56
2021/03/24 07:50:24;;;;;;;7.85;5.70;;;22.50;29.20;;;;;;5051467;28;20040;-57
2021/03/24 07:53:19;;;;;;;5.88;5.18;;;22.50;29.20;;;;;;5051125;28;20032;-59
2021/03/24 07:56:06;;;;;;;6.85;5.78;;;22.50;29.20;;;;;;5050402;28;20037;-52
2021/03/24 07:58:51;;;;;;;6.78;6.05;;;22.50;29.30;;;;;;5052017;28;20090;-56
2021/03/24 08:01:25;;;;;;;6.68;5.05;;;22.60;29.40;;;;;;5051823;28;20091;-60
2021/03/24 08:04:14;;;;;;;6.32;5.18;;;22.60;29.30;;;;;;5052209;28;20082;-58
2021/03/24 08:07:05;;;;;;;5.07;4.38;;;22.70;29.30;;;;;;5048931;28;20040;-55
2021/03/24 08:10:08;;;;;;;6.28;4.60;;;22.80;29.20;;;;;;5052549;28;20029;-56
2021/03/24 08:12:53;;;;;;;5.65;4.55;;;23.00;29.20;;;;;;5050582;28;20043;-56
2021/03/24 08:16:05;;;;;;;5.90;4.78;;;23.10;29.10;;;;;;5050821;28;20048;-57
2021/03/24 08:18:52;;;;;;;6.20;4.47;;;23.20;29.10;;;;;;5022078;28;20048;-59
2021/03/24 08:21:25;;;;;;;5.32;4.10;;;23.20;29.00;;;;;;5048694;28;20186;-54
2021/03/24 08:24:20;;;;;;;4.97;4.22;;;23.30;29.00;;;;;;5049347;28;20029;-56
2021/03/24 08:26:49;;;;;;;5.25;4.28;;;23.40;29.00;;;;;;5049866;28;20044;-56
2021/03/24 08:29:29;;;;;;;5.78;4.55;;;23.40;29.00;;;;;;5051422;28;20068;-56
2021/03/24 08:32:16;;;;;;;5.18;4.60;;;23.50;29.00;;;;;;5051057;28;20086;-55
2021/03/24 08:35:11;;;;;;;5.50;4.63;;;23.50;28.90;;;;;;5052081;28;20037;-57
2021/03/24 08:38:17;;;;;;;4.55;4.10;;;23.60;28.90;;;;;;5019386;28;20065;-58
2021/03/24 08:40:52;;;;;;;6.35;5.38;;;23.60;28.90;;;;;;5051199;28;20116;-56
2021/03/24 08:43:36;;;;;;;7.03;5.97;;;23.60;28.90;;;;;;5049611;28;20175;-58
2021/03/24 08:46:17;;;;;;;;;;;23.60;29.00;;;;;;5050880;28;20024;-59
2021/03/24 08:48:54;;;;;;;7.40;5.97;;;23.50;29.00;;;;;;5049833;28;19909;-59
2021/03/24 08:51:48;;;;;;;7.82;6.05;;;23.40;29.10;;;;;;5051657;28;20050;-55
2021/03/24 08:54:14;;;;;;;8.10;5.97;;;23.40;29.10;;;;;;5040614;28;20352;-59
2021/03/24 08:56:51;;;;;;;8.25;5.90;;;23.30;29.20;;;;;;5051893;28;20037;-57
2021/03/24 08:59:37;;;;;;;6.90;6.00;;;23.30;29.20;;;;;;5051113;28;20029;-53
2021/03/24 09:02:20;;;;;;;7.10;6.18;;;23.30;29.20;;;;;;5050755;28;20123;-57
2021/03/24 09:05:16;;;;;;;8.40;6.78;;;23.20;29.20;;;;;;5052427;28;20048;-55
2021/03/24 09:08:08;;;;;;;8.05;6.32;;;23.20;29.20;;;;;;5054547;28;20024;-52
2021/03/24 09:10:53;;;;;;;8.15;6.53;;;23.20;29.30;;;;;;5055604;28;20428;-59
2021/03/24 09:13:19;;;;;;;;;;;23.20;29.30;;;;;;5056006;28;20029;-53
2021/03/24 09:16:24;;;;;;;7.90;6.38;;;23.10;29.30;;;;;;5056192;28;19986;-58
2021/03/24 09:19:09;;;;;;;8.32;6.70;;;23.10;29.30;;;;;;5053368;28;20032;-56
2021/03/24 09:22:14;;;;;;;8.68;6.03;;;23.00;29.40;;;;;;5044173;28;20072;-56
2021/03/24 09:25:07;;;;;;;8.02;6.15;;;23.10;29.40;;;;;;5051227;28;20060;-55
2021/03/24 09:27:41;;;;;;;7.63;6.15;;;23.00;29.40;;;;;;5045015;28;20060;-63
2021/03/24 09:30:52;;;;;;;7.70;6.03;;;23.00;29.50;;;;;;5055298;28;20025;-54
2021/03/24 09:33:26;;;;;;;8.30;6.25;;;23.00;29.50;;;;;;5044470;28;20029;-54
2021/03/24 09:36:04;;;;;;;7.85;6.10;;;23.00;29.50;;;;;;5053889;28;20048;-59
2021/03/24 09:38:37;;;;;;;8.35;6.65;;;22.90;29.50;;;;;;5043553;28;20127;-57
2021/03/24 09:41:18;;;;;;;7.57;6.22;;;22.90;29.50;;;;;;5055079;28;20316;-59
2021/03/24 09:43:52;;;;;;;7.75;6.53;;;22.90;29.50;;;;;;5045504;28;20352;-59
2021/03/24 09:46:33;;;;;;;7.30;6.10;;;22.90;29.60;;;;;;5046336;28;20036;-57
2021/03/24 09:49:03;;;;;;;7.47;6.18;;;22.90;29.60;;;;;;5053456;28;20029;-59
2021/03/24 09:51:43;;;;;;;6.97;6.00;;;22.80;29.60;;;;;;5056228;28;20055;-59
2021/03/24 09:54:21;;;;;;;7.65;5.88;;;22.80;29.60;;;;;;5054721;28;20059;-58
2021/03/24 09:57:16;;;;;;;7.32;5.90;;;22.80;29.60;;;;;;5054471;28;20033;-56
2021/03/24 09:59:48;;;;;;;;;;;22.80;29.60;;;;;;5054105;28;20158;-61
2021/03/24 10:02:32;;;;;;;8.40;5.80;;;22.80;29.70;;;;;;5052582;28;20225;-61
2021/03/24 10:05:06;;;;;;;7.72;5.90;;;22.80;29.70;;;;;;5053199;28;20032;-60
2021/03/24 10:07:37;;;;;;;7.43;5.53;;;22.80;29.70;;;;;;5051678;28;20032;-61
2021/03/24 10:10:19;;;;;;;8.32;6.22;;;22.80;29.70;;;;;;5055187;28;20036;-59
2021/03/24 10:12:55;;;;;;;7.13;5.78;;;22.70;29.70;;;;;;5053442;28;20024;-60
2021/03/24 10:15:48;;;;;;;8.50;6.15;;;22.70;29.70;;;;;;5051713;28;20025;-58
2021/03/24 10:18:25;;;;;;;9.88;6.13;;;22.70;29.70;;;;;;5054304;28;20037;-55
2021/03/24 10:20:50;;;;;;;6.85;5.47;;;22.70;29.80;;;;;;5054325;28;20044;-61
2021/03/24 10:23:16;;;;;;;7.72;5.88;;;22.70;29.80;;;;;;5054030;28;20027;-56
2021/03/24 10:25:49;;;;;;;7.18;6.05;;;22.70;29.80;;;;;;5050893;28;20036;-58
2021/03/24 10:29:03;;;;;;;7.65;6.30;;;22.70;29.80;;;;;;5053000;28;20032;-59
2021/03/24 10:31:49;;;;;;;6.20;5.28;;;22.70;29.80;;;;;;5018541;28;20152;-59
2021/03/24 10:34:28;;;;;;;7.25;5.20;;;22.70;29.80;;;;;;5052306;28;20017;-59
2021/03/24 10:37:06;;;;;;;7.03;5.68;;;22.70;29.80;;;;;;5045383;28;20029;-60
2021/03/24 10:39:37;;;;;;;6.88;5.43;;;22.70;29.80;;;;;;5050006;28;20045;-58
2021/03/24 10:42:18;;;;;;;7.15;5.38;;;22.60;29.80;;;;;;5044450;28;20021;-57
2021/03/24 10:45:04;;;;;;;6.95;5.63;;;22.70;29.80;;;;;;5042323;28;20037;-58
2021/03/24 10:47:38;;;;;;;6.82;5.28;;;22.60;29.80;;;;;;5052519;28;20041;-56
2021/03/24 10:50:23;;;;;;;6.57;5.30;;;22.60;29.80;;;;;;5050503;28;20117;-58
2021/03/24 10:52:58;;;;;;;;;;;22.60;29.80;;;;;;5054452;28;20112;-60
2021/03/24 10:55:25;;;;;;;6.60;5.03;;;22.60;29.80;;;;;;5054036;28;19918;-58
2021/03/24 10:57:57;;;;;;;6.82;5.25;;;22.60;29.80;;;;;;5047582;28;20536;-60
2021/03/24 11:00:30;;;;;;;6.82;5.18;;;22.60;29.80;;;;;;5052431;28;20036;-59
2021/03/24 11:03:20;;;;;;;6.63;5.00;;;22.60;29.80;;;;;;5050736;28;20043;-60
2021/03/24 11:06:01;;;;;;;6.50;4.90;;;22.60;30.00;;;;;;5053108;28;20150;-58
2021/03/24 11:08:42;;;;;;;5.57;4.55;;;22.60;29.80;;;;;;5066518;28;20547;-57
2021/03/24 11:11:27;;;;;;;6.85;4.72;;;22.60;29.90;;;;;;5051315;28;20025;-63
2021/03/24 11:14:06;;;;;;;6.20;5.15;;;22.60;30.20;;;;;;5049764;28;20105;-58
2021/03/24 11:16:42;;;;;;;8.32;5.50;;;22.70;30.60;;;;;;5048069;28;20045;-52
2021/03/24 11:19:26;;;;;;;5.40;4.25;;;22.70;30.90;;;;;;5051518;28;20108;-61
2021/03/24 11:22:14;;;;;;;5.07;4.45;;;22.70;30.60;;;;;;5050668;28;20060;-55
2021/03/24 11:25:06;;;;;;;6.70;4.85;;;22.70;30.40;;;;;;5051491;28;20032;-56
2021/03/24 11:28:07;;;;;;;4.75;4.25;;;22.70;30.20;;;;;;5049864;28;20025;-59
2021/03/24 11:30:42;;;;;;;5.72;4.20;;;22.60;30.20;;;;;;5050178;28;20024;-58
2021/03/24 11:33:34;;;;;;;5.22;4.57;;;22.60;30.50;;;;;;5052369;28;20051;-57
2021/03/24 11:36:02;;;;;;;5.43;4.78;;;22.70;31.50;;;;;;5051217;28;20037;-59
2021/03/24 11:38:56;;;;;;;5.90;4.88;;;22.70;31.00;;;;;;5053383;28;20033;-57
2021/03/24 11:41:26;;;;;;;6.80;5.63;;;22.70;31.20;;;;;;5045708;28;20057;-59
2021/03/24 11:44:02;;;;;;;7.43;5.07;;;22.70;31.20;;;;;;5048620;28;20043;-53
2021/03/24 11:46:40;;;;;;;6.95;5.65;;;22.80;31.30;;;;;;5052132;28;20033;-60
2021/03/24 11:49:25;;;;;;;6.53;5.50;;;22.80;31.30;;;;;;5047593;28;20021;-50
2021/03/24 11:52:18;;;;;;;5.95;5.35;;;22.90;31.40;;;;;;5050053;28;20178;-56
2021/03/24 11:54:47;;;;;;;6.78;5.15;;;22.90;31.40;;;;;;5048282;28;20025;-58
2021/03/24 11:57:21;;;;;;;6.07;4.93;;;23.00;31.40;;;;;;5050468;28;20036;-54
2021/03/24 12:00:18;;;;;;;5.47;4.80;;;23.00;31.40;;;;;;5051817;28;20032;-63
2021/03/24 12:03:01;;;;;;;6.18;5.03;;;23.10;31.90;;;;;;4997193;28;20241;-61
2021/03/24 12:05:33;;;;;;;6.22;4.88;;;23.10;31.20;;;;;;5051471;28;21516;-61
2021/03/24 12:08:13;;;;;;;4.85;4.03;;;23.20;31.10;;;;;;5050230;28;20467;-61
2021/03/24 12:10:42;;;;;;;6.03;4.40;;;23.20;30.90;;;;;;5049427;28;20048;-61
2021/03/24 12:13:20;;;;;;;5.65;4.13;;;23.30;30.80;;;;;;5044236;28;20224;-60
2021/03/24 12:15:58;;;;;;;4.38;3.75;;;23.20;30.60;;;;;;5050020;28;20344;-60
2021/03/24 12:18:25;;;;;;;5.35;4.30;;;23.30;30.50;;;;;;5051899;28;20063;-57
2021/03/24 12:21:05;;;;;;;4.90;4.22;;;23.30;30.30;;;;;;5052322;28;20072;-53
2021/03/24 12:23:34;;;;;;;4.65;4.13;;;23.40;30.40;;;;;;5041215;28;20333;-61
2021/03/24 12:26:04;;;;;;;5.57;4.60;;;23.40;30.40;;;;;;5051929;28;20025;-58
2021/03/24 12:28:41;;;;;;;5.15;4.65;;;23.40;30.50;;;;;;5050772;28;20420;-54
2021/03/24 12:31:15;;;;;;;5.78;4.43;;;23.40;30.50;;;;;;5051719;28;20044;-51
2021/03/24 12:33:50;;;;;;;4.68;3.92;;;23.50;30.60;;;;;;5050458;28;20036;-59
2021/03/24 12:36:21;;;;;;;4.70;4.10;;;23.50;30.40;;;;;;5052876;28;20045;-61
2021/03/24 12:38:49;;;;;;;4.47;3.72;;;23.60;30.40;;;;;;5047385;28;20037;-61
2021/03/24 12:41:30;;;;;;;4.28;3.67;;;23.60;30.30;;;;;;5040296;28;20433;-58
2021/03/24 12:44:25;;;;;;;4.25;3.75;;;23.60;30.20;;;;;;5057681;28;20048;-55
2021/03/24 12:46:56;;;;;;;;;;;23.60;30.20;;;;;;5058136;28;20029;-57
2021/03/24 12:49:28;;;;;;;3.40;3.10;;;23.60;30.10;;;;;;5057218;28;20235;-59
2021/03/24 12:52:18;;;;;;;3.75;3.45;;;23.70;30.10;;;;;;5056811;28;20025;-59
2021/03/24 12:54:44;;;;;;;6.18;3.95;;;23.70;30.00;;;;;;5054269;28;20060;-56
2021/03/24 12:57:55;;;;;;;4.72;3.95;;;23.70;30.00;;;;;;5053493;28;20109;-57
2021/03/24 13:00:53;;;;;;;4.20;3.65;;;23.80;30.00;;;;;;5031647;28;20490;-58
2021/03/24 13:03:44;;;;;;;4.78;3.40;;;23.80;30.00;;;;;;5055671;28;20036;-56
2021/03/24 13:06:42;;;;;;;4.22;3.83;;;23.80;30.00;;;;;;5056272;28;20056;-54
2021/03/24 13:09:33;;;;;;;4.07;3.50;;;23.80;30.00;;;;;;5045590;28;20036;-56
2021/03/24 13:12:04;;;;;;;4.03;3.58;;;23.90;30.00;;;;;;5056415;28;20060;-58
2021/03/24 13:14:59;;;;;;;4.97;3.60;;;23.90;30.00;;;;;;5056124;28;20033;-60
2021/03/24 13:17:48;;;;;;;4.78;3.58;;;24.00;30.00;;;;;;5055048;28;20045;-60
2021/03/24 13:20:15;;;;;;;3.60;3.08;;;24.00;30.00;;;;;;5045058;28;20037;-59
2021/03/24 13:22:55;;;;;;;4.70;3.92;;;24.00;29.90;;;;;;5048443;28;20454;-59
2021/03/24 13:25:52;;;;;;;4.65;3.92;;;24.10;29.90;;;;;;5052402;28;20035;-57
2021/03/24 13:29:00;;;;;;;5.25;3.70;;;24.10;29.90;;;;;;5056765;28;20047;-60
2021/03/24 13:31:54;;;;;;;4.53;3.78;;;24.10;29.90;;;;;;5054958;28;20462;-58
2021/03/24 13:34:35;;;;;;;4.43;3.22;;;24.10;29.90;;;;;;5052411;28;20044;-56
2021/03/24 13:37:02;;;;;;;4.47;3.47;;;24.20;29.90;;;;;;5046180;28;20032;-56
2021/03/24 13:39:37;;;;;;;4.40;3.60;;;24.20;30.30;;;;;;5041941;28;20364;-57
2021/03/24 13:42:24;;;;;;;4.68;3.40;;;24.20;29.80;;;;;;5055791;28;20033;-62
2021/03/24 13:44:58;;;;;;;4.60;3.67;;;24.20;29.70;;;;;;5056412;28;20384;-53
2021/03/24 13:47:31;;;;;;;4.28;3.80;;;24.20;29.70;;;;;;5051783;28;20021;-58